createdAt,value
2022-10-23T00:00:15.647Z,12.55
2022-10-23T00:01:15.529Z,12.50
2022-10-23T00:02:15.532Z,12.46
2022-10-23T00:03:15.520Z,12.46
2022-10-23T00:04:15.497Z,12.50
2022-10-23T00:05:15.493Z,12.40
2022-10-23T00:06:15.690Z,12.28
2022-10-23T00:07:15.510Z,12.36
2022-10-23T00:08:15.479Z,12.32
2022-10-23T00:09:15.516Z,12.42
2022-10-23T00:10:15.471Z,12.35
2022-10-23T00:11:15.646Z,12.28
2022-10-23T00:12:15.445Z,12.32
2022-10-23T00:13:15.448Z,12.36
2022-10-23T00:14:15.418Z,12.35
2022-10-23T00:15:15.414Z,12.37
2022-10-23T00:16:15.398Z,12.32
2022-10-23T00:17:15.402Z,12.39
2022-10-23T00:18:15.389Z,12.25
2022-10-23T00:19:15.387Z,12.35
2022-10-23T00:20:15.383Z,12.37
2022-10-23T00:21:15.369Z,12.31
2022-10-23T00:22:15.349Z,12.31
2022-10-23T00:23:15.395Z,12.35
2022-10-23T00:24:15.357Z,12.36
2022-10-23T00:25:15.336Z,12.36
2022-10-23T00:26:15.338Z,12.35
2022-10-23T00:27:15.315Z,12.28
2022-10-23T00:28:15.307Z,12.32
2022-10-23T00:29:15.316Z,12.37
2022-10-23T00:30:15.314Z,12.37
2022-10-23T00:31:15.286Z,12.29
2022-10-23T00:32:15.294Z,12.40
2022-10-23T00:33:15.281Z,12.46
2022-10-23T00:34:15.257Z,12.47
2022-10-23T00:35:15.255Z,12.54
2022-10-23T00:36:15.267Z,12.57
2022-10-23T00:37:15.255Z,12.55
2022-10-23T00:38:15.231Z,12.57
2022-10-23T00:39:15.250Z,12.65
2022-10-23T00:40:15.230Z,12.42
2022-10-23T00:41:15.397Z,12.45
2022-10-23T00:42:15.196Z,12.40
2022-10-23T00:43:15.178Z,12.31
2022-10-23T00:44:15.201Z,12.32
2022-10-23T00:45:15.186Z,12.36
2022-10-23T00:46:15.152Z,12.35
2022-10-23T00:47:15.153Z,12.35
2022-10-23T00:48:15.151Z,12.24
2022-10-23T00:49:15.158Z,12.29
2022-10-23T00:50:15.128Z,12.28
2022-10-23T00:51:15.120Z,12.22
2022-10-23T00:52:15.127Z,12.22
2022-10-23T00:53:15.113Z,12.24
2022-10-23T00:54:30.423Z,12.12
2022-10-23T00:55:15.135Z,12.13
2022-10-23T00:56:15.108Z,12.10
2022-10-23T00:57:15.224Z,12.22
2022-10-23T00:58:15.068Z,12.10
2022-10-23T00:59:15.060Z,12.15
2022-10-23T01:00:15.074Z,12.10
2022-10-23T01:01:15.200Z,12.17
2022-10-23T01:02:15.178Z,12.28
2022-10-23T01:03:15.022Z,12.31
2022-10-23T01:04:15.052Z,12.13
2022-10-23T01:05:15.048Z,12.21
2022-10-23T01:06:15.019Z,12.22
2022-10-23T01:07:15.029Z,12.21
2022-10-23T01:08:15.008Z,12.20
2022-10-23T01:09:14.995Z,12.17
2022-10-23T01:10:14.987Z,12.27
2022-10-23T01:11:14.978Z,12.17
2022-10-23T01:12:14.948Z,12.15
2022-10-23T01:13:15.365Z,12.15
2022-10-23T01:14:14.948Z,12.12
2022-10-23T01:15:14.922Z,12.12
2022-10-23T01:16:14.946Z,12.17
2022-10-23T01:17:14.959Z,12.21
2022-10-23T01:18:14.951Z,12.12
2022-10-23T01:19:14.902Z,12.12
2022-10-23T01:20:14.905Z,12.09
2022-10-23T01:21:14.888Z,12.12
2022-10-23T01:22:14.967Z,12.13
2022-10-23T01:23:14.875Z,12.03
2022-10-23T01:24:14.858Z,12.02
2022-10-23T01:25:14.866Z,12.17
2022-10-23T01:26:15.053Z,12.13
2022-10-23T01:27:15.059Z,11.99
2022-10-23T01:28:15.032Z,12.03
2022-10-23T01:29:14.847Z,11.99
2022-10-23T01:30:14.834Z,12.03
2022-10-23T01:31:14.795Z,12.10
2022-10-23T01:32:14.796Z,12.17
2022-10-23T01:33:14.766Z,12.12
2022-10-23T01:34:14.759Z,12.20
2022-10-23T01:35:14.771Z,12.28
2022-10-23T01:36:14.769Z,12.21
2022-10-23T01:37:14.761Z,12.22
2022-10-23T01:38:14.782Z,12.12
2022-10-23T01:39:14.744Z,12.17
2022-10-23T01:40:14.737Z,12.12
2022-10-23T01:41:14.897Z,12.06
2022-10-23T01:42:14.691Z,11.99
2022-10-23T01:43:14.718Z,11.94
2022-10-23T01:44:14.712Z,11.94
2022-10-23T01:45:14.677Z,11.78
2022-10-23T01:46:14.665Z,11.73
2022-10-23T01:47:14.705Z,11.70
2022-10-23T01:48:14.670Z,11.68
2022-10-23T01:49:14.645Z,11.65
2022-10-23T01:50:14.658Z,11.62
2022-10-23T01:51:14.610Z,11.63
2022-10-23T01:52:14.621Z,11.55
2022-10-23T01:53:14.649Z,11.52
2022-10-23T01:54:14.634Z,11.47
2022-10-23T01:55:14.573Z,11.48
2022-10-23T01:56:14.570Z,11.50
2022-10-23T01:57:14.633Z,11.41
2022-10-23T01:58:14.555Z,11.48
2022-10-23T01:59:14.687Z,11.44
2022-10-23T02:00:14.562Z,11.40
2022-10-23T02:01:14.774Z,11.44
2022-10-23T02:02:14.614Z,11.40
2022-10-23T02:03:14.522Z,11.45
2022-10-23T02:04:14.507Z,11.37
2022-10-23T02:05:14.516Z,11.33
2022-10-23T02:06:14.511Z,11.33
2022-10-23T02:07:14.502Z,11.37
2022-10-23T02:08:14.481Z,11.33
2022-10-23T02:09:14.518Z,11.44
2022-10-23T02:10:14.509Z,11.36
2022-10-23T02:11:14.458Z,11.35
2022-10-23T02:12:14.513Z,11.27
2022-10-23T02:13:14.652Z,11.26
2022-10-23T02:14:14.439Z,11.29
2022-10-23T02:15:14.455Z,11.26
2022-10-23T02:16:14.449Z,11.25
2022-10-23T02:17:14.440Z,11.26
2022-10-23T02:18:14.439Z,11.18
2022-10-23T02:19:14.435Z,11.19
2022-10-23T02:20:14.459Z,11.19
2022-10-23T02:21:14.387Z,11.22
2022-10-23T02:22:14.364Z,11.23
2022-10-23T02:23:14.362Z,11.25
2022-10-23T02:24:14.357Z,11.19
2022-10-23T02:25:14.368Z,11.14
2022-10-23T02:26:14.398Z,11.10
2022-10-23T02:27:14.320Z,11.23
2022-10-23T02:28:14.333Z,11.18
2022-10-23T02:29:14.344Z,11.14
2022-10-23T02:30:14.335Z,11.14
2022-10-23T02:31:14.361Z,11.14
2022-10-23T02:32:14.313Z,11.07
2022-10-23T02:33:14.462Z,11.07
2022-10-23T02:34:14.517Z,10.99
2022-10-23T02:35:14.255Z,10.99
2022-10-23T02:36:14.246Z,11.04
2022-10-23T02:37:14.329Z,11.02
2022-10-23T02:39:14.222Z,11.02
2022-10-23T02:40:14.233Z,11.02
2022-10-23T02:41:14.216Z,10.96
2022-10-23T02:42:14.264Z,10.96
2022-10-23T02:43:14.185Z,10.93
2022-10-23T02:44:14.195Z,11.02
2022-10-23T02:45:14.174Z,11.04
2022-10-23T02:46:14.194Z,10.89
2022-10-23T02:47:14.247Z,10.97
2022-10-23T02:48:14.239Z,10.93
2022-10-23T02:49:14.149Z,10.94
2022-10-23T02:50:14.146Z,10.94
2022-10-23T02:51:14.123Z,10.92
2022-10-23T02:52:14.160Z,10.90
2022-10-23T02:53:14.192Z,10.87
2022-10-23T02:54:14.091Z,10.86
2022-10-23T02:55:14.215Z,10.86
2022-10-23T02:56:14.076Z,10.79
2022-10-23T02:57:14.130Z,10.75
2022-10-23T02:58:14.090Z,10.86
2022-10-23T02:59:14.085Z,10.86
2022-10-23T03:00:14.030Z,10.92
2022-10-23T03:01:14.221Z,10.78
2022-10-23T03:02:14.126Z,10.76
2022-10-23T03:03:14.098Z,10.69
2022-10-23T03:04:14.011Z,10.79
2022-10-23T03:05:14.262Z,10.84
2022-10-23T03:06:14.007Z,10.82
2022-10-23T03:07:13.991Z,10.79
2022-10-23T03:08:13.961Z,10.76
2022-10-23T03:09:14.001Z,10.75
2022-10-23T03:10:14.008Z,10.82
2022-10-23T03:11:14.139Z,10.72
2022-10-23T03:12:13.981Z,10.63
2022-10-23T03:13:13.926Z,10.74
2022-10-23T03:14:13.906Z,10.67
2022-10-23T03:15:13.944Z,10.67
2022-10-23T03:16:13.935Z,10.59
2022-10-23T03:17:13.938Z,10.63
2022-10-23T03:18:13.895Z,10.60
2022-10-23T03:19:13.910Z,10.61
2022-10-23T03:20:13.882Z,10.54
2022-10-23T03:21:13.833Z,10.54
2022-10-23T03:22:13.876Z,10.56
2022-10-23T03:23:13.923Z,10.46
2022-10-23T03:24:13.851Z,10.46
2022-10-23T03:25:14.017Z,10.42
2022-10-23T03:26:13.889Z,10.46
2022-10-23T03:27:13.830Z,10.41
2022-10-23T03:28:13.865Z,10.44
2022-10-23T03:29:13.795Z,10.49
2022-10-23T03:30:13.802Z,10.48
2022-10-23T03:31:13.775Z,10.49
2022-10-23T03:32:13.808Z,10.46
2022-10-23T03:33:13.742Z,10.48
2022-10-23T03:34:13.752Z,10.48
2022-10-23T03:35:13.743Z,10.46
2022-10-23T03:36:13.718Z,10.46
2022-10-23T03:37:13.750Z,10.42
2022-10-23T03:38:13.799Z,10.40
2022-10-23T03:39:13.761Z,10.38
2022-10-23T03:40:13.712Z,10.46
2022-10-23T03:41:13.654Z,10.48
2022-10-23T03:42:13.719Z,10.40
2022-10-23T03:43:13.711Z,10.38
2022-10-23T03:44:13.643Z,10.37
2022-10-23T03:45:13.659Z,10.42
2022-10-23T03:46:13.622Z,10.40
2022-10-23T03:47:13.683Z,10.42
2022-10-23T03:48:13.641Z,10.41
2022-10-23T03:49:13.600Z,10.42
2022-10-23T03:50:13.809Z,10.44
2022-10-23T03:51:13.575Z,10.41
2022-10-23T03:52:13.591Z,10.42
2022-10-23T03:53:13.577Z,10.31
2022-10-23T03:54:13.558Z,10.37
2022-10-23T03:55:13.530Z,10.35
2022-10-23T03:56:13.509Z,10.31
2022-10-23T03:57:13.530Z,10.25
2022-10-23T03:58:13.489Z,10.31
2022-10-23T03:59:13.493Z,10.33
2022-10-23T04:00:13.481Z,10.25
2022-10-23T04:01:13.536Z,10.28
2022-10-23T04:02:13.589Z,10.22
2022-10-23T04:03:13.493Z,10.17
2022-10-23T04:04:13.459Z,10.07
2022-10-23T04:05:13.629Z,10.13
2022-10-23T04:06:13.430Z,10.17
2022-10-23T04:07:13.467Z,10.15
2022-10-23T04:08:17.606Z,10.05
2022-10-23T04:10:13.406Z,10.07
2022-10-23T04:11:13.406Z,10.02
2022-10-23T04:12:13.361Z,9.94
2022-10-23T04:13:13.390Z,9.98
2022-10-23T04:14:13.359Z,9.91
2022-10-23T04:15:13.364Z,9.89
2022-10-23T04:16:13.371Z,9.94
2022-10-23T04:17:13.358Z,9.99
2022-10-23T04:18:13.293Z,9.87
2022-10-23T04:19:13.329Z,9.84
2022-10-23T04:20:13.347Z,9.83
2022-10-23T04:21:13.299Z,9.86
2022-10-23T04:22:13.282Z,9.84
2022-10-23T04:23:13.285Z,9.83
2022-10-23T04:24:13.268Z,9.77
2022-10-23T04:25:13.266Z,9.74
2022-10-23T04:26:13.254Z,9.79
2022-10-23T04:27:13.251Z,9.77
2022-10-23T04:28:13.271Z,9.74
2022-10-23T04:29:13.204Z,9.76
2022-10-23T04:30:13.249Z,9.74
2022-10-23T04:31:13.202Z,9.74
2022-10-23T04:32:13.200Z,9.69
2022-10-23T04:33:13.236Z,9.64
2022-10-23T04:34:13.274Z,9.73
2022-10-23T04:35:13.221Z,9.73
2022-10-23T04:36:13.182Z,9.72
2022-10-23T04:37:13.214Z,9.69
2022-10-23T04:38:13.176Z,9.76
2022-10-23T04:39:13.180Z,9.65
2022-10-23T04:40:13.357Z,9.59
2022-10-23T04:41:13.118Z,9.59
2022-10-23T04:42:13.146Z,9.64
2022-10-23T04:43:13.085Z,9.64
2022-10-23T04:44:13.111Z,9.64
2022-10-23T04:45:13.077Z,9.64
2022-10-23T04:46:13.035Z,9.59
2022-10-23T04:47:13.077Z,9.62
2022-10-23T04:48:13.032Z,9.61
2022-10-23T04:49:13.241Z,9.66
2022-10-23T04:50:13.042Z,9.73
2022-10-23T04:51:13.031Z,9.69
2022-10-23T04:52:12.974Z,9.91
2022-10-23T04:53:13.012Z,9.97
2022-10-23T04:54:12.989Z,9.95
2022-10-23T04:55:12.995Z,9.95
2022-10-23T04:56:12.955Z,9.87
2022-10-23T04:57:12.968Z,9.99
2022-10-23T04:58:12.938Z,9.95
2022-10-23T04:59:12.982Z,10.05
2022-10-23T05:00:12.965Z,10.05
2022-10-23T05:01:13.060Z,9.95
2022-10-23T05:02:12.924Z,9.94
2022-10-23T05:03:13.093Z,9.98
2022-10-23T05:04:12.901Z,9.97
2022-10-23T05:05:12.857Z,9.94
2022-10-23T05:06:12.880Z,9.79
2022-10-23T05:07:12.922Z,9.79
2022-10-23T05:08:15.627Z,9.83
2022-10-23T05:09:12.866Z,9.80
2022-10-23T05:10:12.835Z,9.82
2022-10-23T05:11:12.835Z,9.82
2022-10-23T05:12:12.814Z,9.79
2022-10-23T05:13:12.813Z,9.80
2022-10-23T05:14:12.809Z,9.80
2022-10-23T05:15:12.781Z,9.79
2022-10-23T05:16:12.751Z,9.82
2022-10-23T05:17:12.757Z,9.91
2022-10-23T05:18:12.721Z,9.94
2022-10-23T05:19:12.734Z,9.87
2022-10-23T05:20:12.753Z,9.86
2022-10-23T05:21:12.714Z,9.84
2022-10-23T05:22:12.693Z,9.86
2022-10-23T05:23:12.704Z,9.83
2022-10-23T05:24:12.693Z,9.83
2022-10-23T05:25:12.715Z,9.83
2022-10-23T05:26:12.680Z,9.82
2022-10-23T05:27:12.698Z,9.80
2022-10-23T05:28:12.696Z,9.80
2022-10-23T05:29:12.643Z,9.84
2022-10-23T05:30:12.655Z,9.82
2022-10-23T05:31:12.638Z,9.82
2022-10-23T05:32:12.630Z,9.82
2022-10-23T05:33:12.646Z,9.82
2022-10-23T05:34:13.485Z,9.82
2022-10-23T05:35:12.594Z,9.79
2022-10-23T05:36:12.606Z,9.80
2022-10-23T05:37:12.770Z,9.79
2022-10-23T05:38:12.600Z,9.84
2022-10-23T05:39:12.557Z,9.80
2022-10-23T05:40:12.540Z,9.80
2022-10-23T05:41:12.537Z,9.84
2022-10-23T05:42:12.518Z,9.83
2022-10-23T05:43:12.525Z,9.86
2022-10-23T05:44:12.501Z,9.84
2022-10-23T05:45:12.530Z,9.86
2022-10-23T05:46:12.493Z,9.74
2022-10-23T05:47:12.708Z,9.64
2022-10-23T05:48:22.782Z,9.73
2022-10-23T05:49:12.477Z,9.69
2022-10-23T05:50:12.447Z,9.72
2022-10-23T05:51:12.454Z,9.77
2022-10-23T05:52:12.608Z,9.79
2022-10-23T05:53:12.413Z,9.79
2022-10-23T05:54:12.423Z,9.83
2022-10-23T05:55:12.408Z,9.80
2022-10-23T05:56:12.373Z,9.94
2022-10-23T05:57:12.421Z,9.94
2022-10-23T05:58:12.374Z,9.86
2022-10-23T05:59:12.432Z,9.95
2022-10-23T06:00:12.368Z,10.01
2022-10-23T06:01:12.406Z,9.89
2022-10-23T06:02:12.434Z,9.94
2022-10-23T06:03:12.334Z,9.83
2022-10-23T06:04:12.332Z,9.80
2022-10-23T06:05:12.338Z,9.69
2022-10-23T06:06:12.286Z,9.77
2022-10-23T06:07:12.291Z,9.84
2022-10-23T06:08:12.298Z,9.82
2022-10-23T06:09:12.266Z,9.84
2022-10-23T06:10:12.255Z,9.95
2022-10-23T06:11:12.224Z,9.80
2022-10-23T06:12:12.228Z,9.86
2022-10-23T06:13:12.233Z,9.80
2022-10-23T06:14:12.234Z,9.82
2022-10-23T06:15:12.213Z,9.76
2022-10-23T06:16:12.276Z,9.74
2022-10-23T06:17:12.208Z,9.74
2022-10-23T06:18:12.210Z,9.76
2022-10-23T06:19:12.187Z,9.72
2022-10-23T06:20:12.161Z,9.77
2022-10-23T06:21:12.160Z,9.76
2022-10-23T06:22:12.177Z,9.68
2022-10-23T06:23:12.130Z,9.76
2022-10-23T06:24:12.144Z,9.80
2022-10-23T06:25:12.106Z,9.65
2022-10-23T06:26:12.099Z,9.61
2022-10-23T06:27:12.101Z,9.68
2022-10-23T06:28:13.363Z,9.64
2022-10-23T06:29:12.082Z,9.61
2022-10-23T06:30:12.073Z,9.55
2022-10-23T06:31:12.068Z,9.58
2022-10-23T06:32:12.088Z,9.65
2022-10-23T06:33:12.091Z,9.69
2022-10-23T06:34:12.018Z,9.69
2022-10-23T06:35:12.257Z,9.79
2022-10-23T06:36:12.035Z,9.80
2022-10-23T06:37:12.022Z,9.89
2022-10-23T06:38:12.020Z,9.98
2022-10-23T06:39:12.024Z,9.92
2022-10-23T06:40:11.972Z,10.05
2022-10-23T06:41:11.964Z,10.01
2022-10-23T06:42:11.972Z,10.07
2022-10-23T06:43:11.938Z,10.07
2022-10-23T06:44:11.923Z,10.09
2022-10-23T06:45:11.919Z,10.07
2022-10-23T06:46:11.898Z,10.12
2022-10-23T06:47:12.030Z,10.12
2022-10-23T06:48:11.904Z,10.33
2022-10-23T06:49:11.880Z,10.41
2022-10-23T06:50:14.651Z,10.67
2022-10-23T06:51:11.847Z,10.82
2022-10-23T06:52:18.507Z,10.93
2022-10-23T06:53:11.827Z,11.15
2022-10-23T06:54:11.845Z,11.10
2022-10-23T06:55:11.830Z,11.02
2022-10-23T06:56:11.825Z,10.81
2022-10-23T06:57:11.922Z,10.81
2022-10-23T06:58:11.850Z,10.93
2022-10-23T06:59:11.925Z,11.05
2022-10-23T07:00:11.787Z,11.22
2022-10-23T07:01:11.958Z,11.27
2022-10-23T07:02:11.752Z,11.63
2022-10-23T07:03:11.792Z,11.65
2022-10-23T07:04:11.742Z,11.59
2022-10-23T07:05:13.672Z,11.41
2022-10-23T07:06:11.740Z,11.40
2022-10-23T07:07:11.934Z,11.12
2022-10-23T07:08:11.849Z,10.99
2022-10-23T07:09:11.816Z,10.92
2022-10-23T07:10:11.722Z,10.84
2022-10-23T07:11:11.677Z,10.84
2022-10-23T07:12:11.677Z,10.78
2022-10-23T07:13:11.886Z,10.93
2022-10-23T07:14:11.674Z,10.93
2022-10-23T07:15:11.656Z,11.05
2022-10-23T07:16:11.647Z,10.99
2022-10-23T07:17:11.636Z,11.15
2022-10-23T07:18:11.614Z,11.36
2022-10-23T07:19:11.637Z,11.63
2022-10-23T07:20:11.601Z,12.10
2022-10-23T07:21:11.605Z,12.58
2022-10-23T07:22:14.919Z,13.05
2022-10-23T07:23:11.585Z,13.53
2022-10-23T07:24:11.597Z,13.81
2022-10-23T07:25:11.823Z,14.32
2022-10-23T07:26:11.562Z,14.89
2022-10-23T07:27:11.567Z,15.10
2022-10-23T07:28:11.539Z,15.04
2022-10-23T07:29:11.524Z,14.88
2022-10-23T07:30:11.564Z,14.72
2022-10-23T07:31:11.532Z,14.88
2022-10-23T07:32:11.578Z,15.06
2022-10-23T07:33:11.543Z,15.15
2022-10-23T07:34:11.526Z,15.06
2022-10-23T07:35:11.585Z,15.18
2022-10-23T07:36:11.515Z,15.42
2022-10-23T07:37:11.491Z,15.27
2022-10-23T07:38:11.509Z,15.46
2022-10-23T07:39:11.497Z,15.61
2022-10-23T07:40:11.483Z,15.73
2022-10-23T07:41:12.304Z,15.70
2022-10-23T07:42:11.470Z,15.46
2022-10-23T07:43:11.473Z,15.58
2022-10-23T07:44:11.440Z,15.62
2022-10-23T07:45:11.438Z,15.44
2022-10-23T07:46:11.498Z,15.40
2022-10-23T07:47:11.423Z,15.29
2022-10-23T07:48:11.441Z,15.33
2022-10-23T07:49:11.424Z,15.24
2022-10-23T07:50:11.449Z,15.18
2022-10-23T07:51:11.498Z,15.07
2022-10-23T07:52:11.421Z,15.00
2022-10-23T07:53:11.403Z,14.94
2022-10-23T07:54:11.400Z,14.79
2022-10-23T07:55:11.420Z,14.77
2022-10-23T07:56:11.407Z,14.63
2022-10-23T07:57:11.381Z,14.62
2022-10-23T07:58:11.354Z,14.60
2022-10-23T07:59:11.372Z,14.63
2022-10-23T08:00:11.422Z,14.54
2022-10-23T08:01:11.447Z,14.73
2022-10-23T08:02:11.399Z,14.77
2022-10-23T08:03:11.370Z,14.91
2022-10-23T08:04:11.333Z,15.00
2022-10-23T08:05:11.322Z,14.97
2022-10-23T08:06:11.330Z,15.04
2022-10-23T08:07:11.355Z,15.18
2022-10-23T08:08:11.304Z,15.31
2022-10-23T08:09:11.313Z,15.54
2022-10-23T08:10:11.317Z,15.88
2022-10-23T08:11:11.261Z,16.28
2022-10-23T08:12:11.269Z,16.81
2022-10-23T08:13:11.302Z,17.45
2022-10-23T08:14:11.262Z,17.63
2022-10-23T08:15:11.286Z,17.92
2022-10-23T08:16:11.252Z,18.38
2022-10-23T08:17:11.276Z,18.89
2022-10-23T08:18:11.258Z,19.36
2022-10-23T08:19:11.247Z,19.76
2022-10-23T08:20:11.248Z,19.96
2022-10-23T08:21:11.245Z,19.99
2022-10-23T08:22:11.255Z,20.09
2022-10-23T08:23:11.256Z,20.07
2022-10-23T08:24:11.311Z,20.31
2022-10-23T08:25:11.273Z,20.37
2022-10-23T08:26:11.207Z,20.41
2022-10-23T08:27:11.212Z,20.62
2022-10-23T08:28:11.216Z,20.36
2022-10-23T08:29:11.195Z,20.40
2022-10-23T08:30:11.209Z,19.88
2022-10-23T08:31:11.196Z,19.04
2022-10-23T08:32:11.195Z,18.25
2022-10-23T08:33:11.188Z,17.76
2022-10-23T08:34:11.211Z,17.60
2022-10-23T08:35:11.170Z,17.15
2022-10-23T08:36:11.192Z,16.90
2022-10-23T08:37:11.170Z,16.72
2022-10-23T08:38:11.170Z,16.60
2022-10-23T08:39:11.201Z,16.42
2022-10-23T08:40:11.146Z,16.33
2022-10-23T08:41:11.147Z,16.09
2022-10-23T08:43:11.125Z,15.65
2022-10-23T08:44:11.122Z,15.68
2022-10-23T08:45:11.114Z,15.59
2022-10-23T08:46:11.109Z,15.61
2022-10-23T08:47:11.263Z,15.64
2022-10-23T08:48:11.293Z,15.49
2022-10-23T08:49:11.289Z,15.44
2022-10-23T08:50:11.090Z,15.59
2022-10-23T08:51:11.117Z,15.58
2022-10-23T08:52:13.302Z,15.72
2022-10-23T08:53:11.090Z,15.97
2022-10-23T08:54:11.083Z,16.32
2022-10-23T08:55:11.078Z,16.66
2022-10-23T08:56:11.694Z,16.81
2022-10-23T08:57:11.057Z,16.58
2022-10-23T08:58:11.068Z,16.47
2022-10-23T08:59:11.250Z,16.32
2022-10-23T09:00:11.047Z,16.24
2022-10-23T09:01:11.278Z,16.33
2022-10-23T09:02:11.178Z,16.68
2022-10-23T09:03:11.045Z,17.12
2022-10-23T09:04:11.039Z,17.45
2022-10-23T09:05:11.007Z,17.92
2022-10-23T09:06:11.015Z,18.22
2022-10-23T09:07:11.072Z,18.55
2022-10-23T09:08:10.997Z,18.59
2022-10-23T09:09:10.986Z,18.66
2022-10-23T09:10:11.008Z,18.58
2022-10-23T09:11:11.014Z,18.35
2022-10-23T09:12:10.986Z,18.25
2022-10-23T09:13:10.968Z,17.98
2022-10-23T09:14:11.180Z,17.86
2022-10-23T09:15:10.971Z,17.85
2022-10-23T09:16:10.982Z,17.90
2022-10-23T09:17:11.016Z,18.01
2022-10-23T09:18:10.955Z,18.13
2022-10-23T09:19:12.149Z,18.16
2022-10-23T09:20:10.980Z,18.25
2022-10-23T09:21:11.159Z,18.19
2022-10-23T09:22:10.966Z,18.35
2022-10-23T09:23:10.948Z,18.47
2022-10-23T09:24:10.952Z,18.45
2022-10-23T09:25:10.954Z,18.63
2022-10-23T09:26:10.934Z,18.58
2022-10-23T09:27:10.969Z,18.77
2022-10-23T09:28:10.938Z,19.07
2022-10-23T09:29:10.925Z,19.34
2022-10-23T09:30:11.134Z,19.33
2022-10-23T09:31:10.939Z,19.59
2022-10-23T09:32:10.931Z,19.74
2022-10-23T09:33:10.912Z,19.88
2022-10-23T09:34:11.815Z,19.84
2022-10-23T09:35:10.928Z,19.91
2022-10-23T09:36:10.908Z,20.02
2022-10-23T09:37:10.920Z,19.91
2022-10-23T09:38:10.901Z,19.71
2022-10-23T09:39:10.936Z,19.74
2022-10-23T09:40:10.909Z,19.82
2022-10-23T09:41:10.891Z,19.89
2022-10-23T09:42:10.900Z,19.82
2022-10-23T09:43:10.928Z,19.64
2022-10-23T09:44:10.882Z,19.63
2022-10-23T09:45:10.878Z,19.67
2022-10-23T09:46:10.880Z,19.77
2022-10-23T09:47:11.076Z,19.81
2022-10-23T09:48:10.900Z,19.92
2022-10-23T09:49:10.887Z,19.91
2022-10-23T09:50:10.860Z,20.09
2022-10-23T09:51:10.872Z,19.99
2022-10-23T09:52:10.899Z,20.14
2022-10-23T09:53:10.856Z,20.26
2022-10-23T09:54:11.088Z,20.16
2022-10-23T09:55:11.049Z,20.07
2022-10-23T09:56:10.874Z,20.03
2022-10-23T09:57:10.844Z,20.09
2022-10-23T09:58:10.862Z,20.11
2022-10-23T09:59:10.880Z,20.24
2022-10-23T10:00:10.856Z,19.88
2022-10-23T10:01:10.962Z,19.79
2022-10-23T10:02:11.024Z,19.63
2022-10-23T10:03:10.835Z,19.67
2022-10-23T10:04:11.034Z,19.69
2022-10-23T10:05:10.828Z,19.64
2022-10-23T10:06:10.833Z,19.74
2022-10-23T10:07:10.836Z,19.89
2022-10-23T10:08:10.844Z,19.86
2022-10-23T10:09:11.040Z,19.79
2022-10-23T10:10:10.814Z,19.54
2022-10-23T10:11:10.812Z,19.30
2022-10-23T10:12:11.082Z,19.34
2022-10-23T10:13:14.259Z,19.34
2022-10-23T10:14:10.814Z,19.36
2022-10-23T10:15:10.846Z,19.34
2022-10-23T10:16:10.819Z,19.31
2022-10-23T10:17:10.846Z,19.33
2022-10-23T10:18:10.826Z,19.29
2022-10-23T10:19:10.819Z,19.09
2022-10-23T10:20:10.785Z,19.11
2022-10-23T10:21:10.801Z,18.83
2022-10-23T10:22:10.761Z,18.70
2022-10-23T10:23:10.986Z,18.58
2022-10-23T10:24:10.776Z,18.52
2022-10-23T10:25:10.763Z,18.66
2022-10-23T10:26:10.761Z,18.56
2022-10-23T10:27:10.772Z,18.62
2022-10-23T10:28:10.745Z,18.52
2022-10-23T10:29:10.753Z,18.65
2022-10-23T10:30:10.772Z,18.59
2022-10-23T10:31:10.777Z,18.70
2022-10-23T10:32:10.767Z,18.73
2022-10-23T10:33:10.764Z,18.53
2022-10-23T10:34:10.763Z,18.62
2022-10-23T10:35:10.703Z,18.47
2022-10-23T10:36:10.702Z,18.60
2022-10-23T10:37:10.687Z,18.71
2022-10-23T10:38:10.709Z,18.80
2022-10-23T10:39:10.700Z,18.90
2022-10-23T10:40:10.679Z,18.99
2022-10-23T10:41:10.669Z,18.96
2022-10-23T10:42:10.722Z,19.04
2022-10-23T10:43:10.665Z,18.99
2022-10-23T10:44:10.664Z,18.98
2022-10-23T10:45:10.882Z,18.99
2022-10-23T10:46:10.734Z,19.12
2022-10-23T10:47:10.920Z,19.15
2022-10-23T10:48:10.644Z,19.18
2022-10-23T10:49:10.859Z,19.24
2022-10-23T10:50:10.637Z,19.15
2022-10-23T10:51:10.676Z,19.14
2022-10-23T10:52:10.711Z,18.96
2022-10-23T10:53:10.679Z,18.92
2022-10-23T10:54:10.637Z,18.92
2022-10-23T10:55:10.628Z,18.95
2022-10-23T10:57:10.624Z,18.90
2022-10-23T10:58:10.600Z,19.02
2022-10-23T10:59:10.607Z,19.14
2022-10-23T11:00:10.777Z,18.99
2022-10-23T11:01:10.677Z,19.00
2022-10-23T11:02:10.852Z,19.07
2022-10-23T11:03:10.634Z,18.92
2022-10-23T11:04:10.577Z,18.83
2022-10-23T11:05:10.586Z,18.90
2022-10-23T11:06:10.580Z,18.89
2022-10-23T11:07:10.565Z,18.75
2022-10-23T11:08:11.013Z,18.86
2022-10-23T11:09:20.159Z,18.89
2022-10-23T11:10:10.530Z,19.00
2022-10-23T11:11:10.646Z,18.99
2022-10-23T11:12:10.733Z,19.09
2022-10-23T11:13:10.517Z,19.27
2022-10-23T11:14:10.523Z,19.24
2022-10-23T11:15:10.521Z,19.24
2022-10-23T11:16:10.508Z,19.36
2022-10-23T11:17:10.509Z,19.44
2022-10-23T11:18:10.496Z,19.39
2022-10-23T11:19:13.855Z,19.39
2022-10-23T11:20:10.488Z,19.41
2022-10-23T11:21:10.679Z,19.41
2022-10-23T11:22:10.492Z,19.34
2022-10-23T11:23:10.474Z,19.37
2022-10-23T11:25:10.460Z,19.41
2022-10-23T11:26:10.450Z,19.52
2022-10-23T11:27:10.440Z,19.63
2022-10-23T11:28:10.906Z,19.66
2022-10-23T11:29:10.493Z,19.66
2022-10-23T11:30:10.442Z,19.71
2022-10-23T11:31:12.071Z,19.70
2022-10-23T11:32:10.441Z,19.73
2022-10-23T11:33:10.425Z,19.66
2022-10-23T11:34:10.415Z,19.62
2022-10-23T11:35:10.509Z,19.64
2022-10-23T11:36:10.425Z,19.63
2022-10-23T11:37:10.388Z,19.58
2022-10-23T11:38:10.406Z,19.66
2022-10-23T11:39:10.385Z,19.81
2022-10-23T11:40:10.444Z,19.74
2022-10-23T11:41:10.596Z,19.77
2022-10-23T11:42:10.380Z,19.71
2022-10-23T11:43:10.375Z,19.81
2022-10-23T11:44:10.368Z,19.82
2022-10-23T11:45:10.355Z,19.76
2022-10-23T11:46:10.346Z,19.76
2022-10-23T11:47:10.353Z,19.86
2022-10-23T11:48:10.378Z,19.82
2022-10-23T11:49:10.387Z,19.88
2022-10-23T11:50:10.361Z,19.88
2022-10-23T11:51:10.363Z,19.91
2022-10-23T11:52:10.331Z,20.04
2022-10-23T11:53:14.304Z,20.04
2022-10-23T11:54:10.521Z,20.06
2022-10-23T11:55:10.304Z,20.10
2022-10-23T11:56:10.532Z,20.13
2022-10-23T11:57:10.881Z,20.13
2022-10-23T11:58:10.320Z,20.21
2022-10-23T11:59:10.311Z,20.19
2022-10-23T12:00:10.284Z,20.22
2022-10-23T12:01:10.357Z,20.19
2022-10-23T12:02:10.400Z,20.04
2022-10-23T12:03:10.487Z,20.11
2022-10-23T12:04:10.274Z,20.06
2022-10-23T12:05:10.278Z,20.04
2022-10-23T12:06:10.359Z,20.00
2022-10-23T12:07:10.284Z,19.91
2022-10-23T12:08:10.250Z,19.88
2022-10-23T12:09:10.259Z,19.89
2022-10-23T12:10:10.251Z,19.89
2022-10-23T12:11:10.274Z,19.91
2022-10-23T12:12:10.268Z,19.91
2022-10-23T12:13:10.243Z,19.91
2022-10-23T12:14:10.463Z,19.91
2022-10-23T12:15:10.215Z,19.96
2022-10-23T12:16:10.248Z,20.00
2022-10-23T12:17:10.216Z,20.02
2022-10-23T12:18:10.286Z,20.00
2022-10-23T12:19:10.260Z,20.03
2022-10-23T12:20:10.277Z,19.99
2022-10-23T12:21:10.239Z,20.04
2022-10-23T12:22:10.376Z,20.07
2022-10-23T12:23:10.430Z,20.03
2022-10-23T12:24:10.203Z,19.96
2022-10-23T12:25:10.190Z,19.99
2022-10-23T12:26:10.193Z,20.10
2022-10-23T12:27:10.191Z,20.13
2022-10-23T12:28:10.188Z,20.06
2022-10-23T12:29:10.137Z,20.21
2022-10-23T12:30:10.299Z,20.16
2022-10-23T12:31:10.186Z,20.02
2022-10-23T12:32:10.237Z,20.16
2022-10-23T12:33:10.177Z,20.22
2022-10-23T12:34:10.475Z,20.19
2022-10-23T12:35:10.113Z,20.19
2022-10-23T12:36:10.197Z,20.24
2022-10-23T12:37:10.146Z,20.18
2022-10-23T12:38:10.156Z,20.22
2022-10-23T12:39:10.254Z,20.31
2022-10-23T12:40:10.346Z,20.22
2022-10-23T12:41:10.111Z,20.19
2022-10-23T12:42:10.141Z,20.11
2022-10-23T12:43:10.080Z,20.09
2022-10-23T12:44:10.112Z,20.18
2022-10-23T12:45:10.097Z,20.19
2022-10-23T12:46:13.002Z,20.13
2022-10-23T12:47:10.136Z,20.21
2022-10-23T12:48:10.054Z,20.19
2022-10-23T12:49:10.316Z,20.18
2022-10-23T12:50:10.088Z,20.24
2022-10-23T12:51:10.049Z,20.31
2022-10-23T12:52:10.079Z,20.24
2022-10-23T12:53:10.065Z,20.25
2022-10-23T12:54:10.020Z,20.26
2022-10-23T12:55:10.046Z,20.21
2022-10-23T12:56:10.039Z,20.25
2022-10-23T12:57:10.028Z,20.22
2022-10-23T12:58:10.234Z,20.31
2022-10-23T12:59:10.049Z,20.34
2022-10-23T13:00:10.004Z,20.28
2022-10-23T13:01:10.138Z,20.37
2022-10-23T13:02:10.165Z,20.37